TVS3AQ LOWI-EDDF
Flight info
| Callsign | TVS3AQ |
|---|---|
| Flight time | 0h 44m |
| Altitude | 30000 |
| Route | KOGOL M726 ERNAS T161 DEBHI SPESA5C |
| Aircraft | B738/M-SDE2E3FGHIRWXY/LB1 |
Departure
| Time | 2026-04-15 13:56 |
|---|---|
| Airport | Innsbruck Airport (LOWI) |
Arrival
| Time | 2026-04-15 14:41 |
|---|---|
| Airport | Frankfurt Main Airport (EDDF) |
| Time | Latitude | Longitude | Altitude | Speed | Heading |
|---|---|---|---|---|---|
| 2026-04-15 13:26 | 47.25820 | 11.34989 | 1893 ft | 0 kts | 171° |
| 2026-04-15 13:47 | 47.25831 | 11.34986 | 1889 ft | 3 kts | 177° |
| 2026-04-15 13:47 | 47.25851 | 11.34988 | 1895 ft | 3 kts | 199° |
| 2026-04-15 13:48 | 47.25867 | 11.35001 | 1891 ft | 3 kts | 233° |
| 2026-04-15 13:48 | 47.25874 | 11.35022 | 1895 ft | 2 kts | 260° |
| 2026-04-15 13:48 | 47.25875 | 11.35025 | 1895 ft | 1 kts | 261° |
| 2026-04-15 13:50 | 47.25874 | 11.35017 | 1894 ft | 4 kts | 261° |
| 2026-04-15 13:50 | 47.25866 | 11.34942 | 1894 ft | 10 kts | 261° |
| 2026-04-15 13:50 | 47.25853 | 11.34819 | 1900 ft | 14 kts | 261° |
| 2026-04-15 13:51 | 47.25832 | 11.34631 | 1901 ft | 22 kts | 261° |
| 2026-04-15 13:51 | 47.25814 | 11.34459 | 1906 ft | 14 kts | 260° |
| 2026-04-15 13:51 | 47.25799 | 11.34319 | 1906 ft | 14 kts | 261° |
| 2026-04-15 13:51 | 47.25785 | 11.34188 | 1901 ft | 13 kts | 261° |
| 2026-04-15 13:52 | 47.25772 | 11.34059 | 1906 ft | 13 kts | 266° |
| 2026-04-15 13:52 | 47.25787 | 11.33935 | 1900 ft | 12 kts | 294° |
| 2026-04-15 13:52 | 47.25813 | 11.33875 | 1896 ft | 0 kts | 306° |
| 2026-04-15 13:54 | 47.25827 | 11.33846 | 1906 ft | 10 kts | 306° |
| 2026-04-15 13:54 | 47.25898 | 11.33703 | 1907 ft | 23 kts | 306° |
| 2026-04-15 13:54 | 47.25924 | 11.33485 | 1896 ft | 23 kts | 262° |
| 2026-04-15 13:54 | 47.25877 | 11.33272 | 1898 ft | 22 kts | 234° |
| 2026-04-15 13:55 | 47.25835 | 11.33109 | 1898 ft | 8 kts | 273° |
| 2026-04-15 13:55 | 47.25880 | 11.33088 | 1904 ft | 9 kts | 49° |
| 2026-04-15 13:55 | 47.25886 | 11.33138 | 1901 ft | 0 kts | 82° |
| 2026-04-15 13:55 | 47.25887 | 11.33149 | 1905 ft | 12 kts | 82° |
| 2026-04-15 13:56 | 47.25945 | 11.33690 | 1905 ft | 93 kts | 81° |
| 2026-04-15 13:56 | 47.26090 | 11.34986 | 1936 ft | 157 kts | 81° |
| 2026-04-15 13:56 | 47.26284 | 11.36638 | 2658 ft | 169 kts | 79° |
| 2026-04-15 13:56 | 47.26486 | 11.38409 | 3472 ft | 180 kts | 80° |
| 2026-04-15 13:57 | 47.26687 | 11.40272 | 4147 ft | 196 kts | 80° |
| 2026-04-15 13:57 | 47.26918 | 11.42340 | 4332 ft | 214 kts | 81° |
| 2026-04-15 13:57 | 47.27151 | 11.44558 | 4468 ft | 231 kts | 81° |
| 2026-04-15 13:57 | 47.27612 | 11.46927 | 4641 ft | 249 kts | 69° |
| 2026-04-15 13:58 | 47.28310 | 11.49298 | 5200 ft | 255 kts | 66° |
| 2026-04-15 13:58 | 47.29042 | 11.51737 | 5725 ft | 266 kts | 66° |
| 2026-04-15 13:58 | 47.29787 | 11.54289 | 6313 ft | 273 kts | 67° |
| 2026-04-15 13:58 | 47.30526 | 11.56869 | 6985 ft | 275 kts | 67° |
| 2026-04-15 13:59 | 47.31272 | 11.59492 | 7598 ft | 280 kts | 68° |
| 2026-04-15 13:59 | 47.32035 | 11.62163 | 8219 ft | 286 kts | 68° |
| 2026-04-15 13:59 | 47.32817 | 11.64881 | 8894 ft | 290 kts | 68° |
| 2026-04-15 13:59 | 47.33614 | 11.67647 | 9532 ft | 296 kts | 68° |
| 2026-04-15 14:00 | 47.34415 | 11.70443 | 10329 ft | 296 kts | 69° |
| 2026-04-15 14:00 | 47.35215 | 11.73246 | 11055 ft | 298 kts | 69° |
| 2026-04-15 14:00 | 47.36026 | 11.76083 | 11709 ft | 302 kts | 68° |
| 2026-04-15 14:00 | 47.36941 | 11.78884 | 12418 ft | 305 kts | 54° |
| 2026-04-15 14:01 | 47.40646 | 11.81431 | 13876 ft | 307 kts | 356° |
| 2026-04-15 14:01 | 47.42685 | 11.80711 | 14542 ft | 307 kts | 334° |
| 2026-04-15 14:01 | 47.44458 | 11.78886 | 15210 ft | 310 kts | 312° |
| 2026-04-15 14:02 | 47.45768 | 11.76362 | 15930 ft | 311 kts | 304° |
| 2026-04-15 14:02 | 47.46968 | 11.73738 | 16638 ft | 313 kts | 303° |
| 2026-04-15 14:02 | 47.48176 | 11.71032 | 17294 ft | 318 kts | 304° |
| 2026-04-15 14:02 | 47.49403 | 11.68284 | 17952 ft | 322 kts | 304° |
| 2026-04-15 14:03 | 47.50647 | 11.65515 | 18611 ft | 325 kts | 304° |
| 2026-04-15 14:03 | 47.51909 | 11.62724 | 19210 ft | 327 kts | 305° |
| 2026-04-15 14:03 | 47.53180 | 11.59923 | 19842 ft | 329 kts | 306° |
| 2026-04-15 14:03 | 47.54473 | 11.57076 | 20196 ft | 341 kts | 306° |
| 2026-04-15 14:04 | 47.55832 | 11.54082 | 20326 ft | 359 kts | 306° |
| 2026-04-15 14:04 | 47.56790 | 11.51969 | 20423 ft | 371 kts | 306° |
| 2026-04-15 14:04 | 47.58238 | 11.48777 | 20527 ft | 387 kts | 305° |
| 2026-04-15 14:04 | 47.59769 | 11.45402 | 20642 ft | 403 kts | 305° |
| 2026-04-15 14:05 | 47.61578 | 11.42176 | 20803 ft | 413 kts | 322° |
| 2026-04-15 14:05 | 47.64071 | 11.40062 | 21250 ft | 414 kts | 340° |
| 2026-04-15 14:05 | 47.66875 | 11.39164 | 21853 ft | 413 kts | 355° |
| 2026-04-15 14:05 | 47.69738 | 11.38805 | 22442 ft | 413 kts | 356° |
| 2026-04-15 14:06 | 47.72612 | 11.38494 | 22943 ft | 416 kts | 356° |
| 2026-04-15 14:06 | 47.75507 | 11.38164 | 23421 ft | 419 kts | 356° |
| 2026-04-15 14:06 | 47.78417 | 11.37796 | 23889 ft | 421 kts | 356° |
| 2026-04-15 14:06 | 47.81337 | 11.37402 | 24320 ft | 422 kts | 356° |
| 2026-04-15 14:07 | 47.84261 | 11.37000 | 24761 ft | 422 kts | 356° |
| 2026-04-15 14:07 | 47.87187 | 11.36610 | 25201 ft | 423 kts | 357° |
| 2026-04-15 14:07 | 47.90130 | 11.36337 | 25584 ft | 424 kts | 358° |
| 2026-04-15 14:07 | 47.93086 | 11.36121 | 25957 ft | 426 kts | 358° |
| 2026-04-15 14:08 | 47.96051 | 11.35907 | 26362 ft | 426 kts | 358° |
| 2026-04-15 14:08 | 47.99005 | 11.35675 | 26924 ft | 423 kts | 358° |
| 2026-04-15 14:08 | 48.01932 | 11.35431 | 27556 ft | 418 kts | 358° |
| 2026-04-15 14:08 | 48.04819 | 11.35186 | 28138 ft | 415 kts | 358° |
| 2026-04-15 14:09 | 48.07704 | 11.34886 | 28155 ft | 415 kts | 355° |
| 2026-04-15 14:09 | 48.13413 | 11.33798 | 28197 ft | 414 kts | 353° |
| 2026-04-15 14:10 | 48.19131 | 11.32623 | 28194 ft | 416 kts | 353° |
| 2026-04-15 14:10 | 48.22015 | 11.32050 | 28383 ft | 420 kts | 354° |
| 2026-04-15 14:10 | 48.24869 | 11.31492 | 28913 ft | 417 kts | 354° |
| 2026-04-15 14:10 | 48.27764 | 11.30938 | 29630 ft | 410 kts | 354° |
| 2026-04-15 14:11 | 48.30540 | 11.30485 | 30180 ft | 406 kts | 355° |
| 2026-04-15 14:11 | 48.36190 | 11.29648 | 30188 ft | 407 kts | 355° |
| 2026-04-15 14:12 | 48.41774 | 11.28802 | 30202 ft | 402 kts | 355° |
| 2026-04-15 14:12 | 48.47347 | 11.27929 | 30187 ft | 404 kts | 355° |
| 2026-04-15 14:13 | 48.52945 | 11.27040 | 30202 ft | 405 kts | 355° |
| 2026-04-15 14:13 | 48.58562 | 11.26143 | 30201 ft | 406 kts | 355° |
| 2026-04-15 14:14 | 48.64223 | 11.25246 | 30220 ft | 414 kts | 354° |
| 2026-04-15 14:14 | 48.70039 | 11.24299 | 30223 ft | 426 kts | 354° |
| 2026-04-15 14:15 | 48.76011 | 11.23311 | 30226 ft | 437 kts | 354° |
| 2026-04-15 14:15 | 48.82061 | 11.21869 | 30208 ft | 444 kts | 342° |
| 2026-04-15 14:16 | 48.87584 | 11.17665 | 30208 ft | 448 kts | 326° |
| 2026-04-15 14:16 | 48.92230 | 11.11289 | 30203 ft | 451 kts | 319° |
| 2026-04-15 14:17 | 48.96813 | 11.04785 | 30213 ft | 451 kts | 320° |
| 2026-04-15 14:17 | 49.01391 | 10.98359 | 30210 ft | 450 kts | 319° |
| 2026-04-15 14:18 | 49.06012 | 10.91834 | 30230 ft | 450 kts | 319° |
| 2026-04-15 14:18 | 49.10599 | 10.85350 | 30238 ft | 449 kts | 319° |
| 2026-04-15 14:19 | 49.15162 | 10.78908 | 30251 ft | 450 kts | 319° |
| 2026-04-15 14:19 | 49.19748 | 10.72413 | 30260 ft | 449 kts | 319° |
| 2026-04-15 14:20 | 49.24092 | 10.65733 | 29913 ft | 431 kts | 316° |
| 2026-04-15 14:20 | 49.26142 | 10.62442 | 29425 ft | 424 kts | 315° |
| 2026-04-15 14:20 | 49.28174 | 10.59185 | 28751 ft | 422 kts | 315° |
| 2026-04-15 14:20 | 49.30213 | 10.55938 | 27899 ft | 424 kts | 315° |
| 2026-04-15 14:21 | 49.32275 | 10.52670 | 26955 ft | 429 kts | 315° |
| 2026-04-15 14:21 | 49.34365 | 10.49367 | 25993 ft | 434 kts | 315° |
| 2026-04-15 14:21 | 49.36455 | 10.46007 | 25150 ft | 436 kts | 311° |
| 2026-04-15 14:21 | 49.38316 | 10.42351 | 24575 ft | 433 kts | 306° |
| 2026-04-15 14:22 | 49.40011 | 10.38542 | 24373 ft | 433 kts | 304° |
| 2026-04-15 14:22 | 49.41698 | 10.34710 | 24258 ft | 431 kts | 307° |
| 2026-04-15 14:22 | 49.43702 | 10.31300 | 24211 ft | 431 kts | 317° |
| 2026-04-15 14:22 | 49.46048 | 10.28450 | 24218 ft | 431 kts | 324° |
| 2026-04-15 14:23 | 49.48493 | 10.25806 | 24180 ft | 425 kts | 324° |
| 2026-04-15 14:23 | 49.50894 | 10.23229 | 23732 ft | 419 kts | 324° |
| 2026-04-15 14:23 | 49.53277 | 10.20656 | 22952 ft | 419 kts | 324° |
| 2026-04-15 14:23 | 49.55632 | 10.18092 | 22130 ft | 421 kts | 324° |
| 2026-04-15 14:24 | 49.58013 | 10.15477 | 21441 ft | 419 kts | 323° |
| 2026-04-15 14:24 | 49.60374 | 10.12869 | 20859 ft | 415 kts | 323° |
| 2026-04-15 14:24 | 49.62711 | 10.10280 | 20279 ft | 412 kts | 323° |
| 2026-04-15 14:24 | 49.65031 | 10.07704 | 19689 ft | 409 kts | 323° |
| 2026-04-15 14:25 | 49.67338 | 10.05138 | 19387 ft | 412 kts | 323° |
| 2026-04-15 14:25 | 49.69662 | 10.02548 | 19277 ft | 411 kts | 323° |
| 2026-04-15 14:25 | 49.71969 | 9.99976 | 19216 ft | 408 kts | 323° |
| 2026-04-15 14:25 | 49.74274 | 9.97404 | 19209 ft | 409 kts | 323° |
| 2026-04-15 14:26 | 49.76575 | 9.94834 | 19199 ft | 408 kts | 323° |
| 2026-04-15 14:26 | 49.78874 | 9.92262 | 19194 ft | 408 kts | 322° |
| 2026-04-15 14:26 | 49.81169 | 9.89692 | 19194 ft | 408 kts | 322° |
| 2026-04-15 14:26 | 49.83455 | 9.87130 | 19169 ft | 399 kts | 322° |
| 2026-04-15 14:27 | 49.85669 | 9.84649 | 19034 ft | 387 kts | 322° |
| 2026-04-15 14:27 | 49.87828 | 9.82228 | 18708 ft | 380 kts | 322° |
| 2026-04-15 14:27 | 49.89966 | 9.79826 | 18147 ft | 380 kts | 322° |
| 2026-04-15 14:27 | 49.92093 | 9.77429 | 17618 ft | 373 kts | 322° |
| 2026-04-15 14:28 | 49.94130 | 9.75134 | 17509 ft | 351 kts | 322° |
| 2026-04-15 14:28 | 49.96051 | 9.72971 | 17371 ft | 333 kts | 322° |
| 2026-04-15 14:28 | 49.97880 | 9.70909 | 17185 ft | 318 kts | 322° |
| 2026-04-15 14:28 | 49.99651 | 9.68907 | 16715 ft | 314 kts | 322° |
| 2026-04-15 14:29 | 50.01413 | 9.66910 | 16160 ft | 313 kts | 322° |
| 2026-04-15 14:29 | 50.03165 | 9.64921 | 15660 ft | 310 kts | 322° |
| 2026-04-15 14:29 | 50.04898 | 9.62953 | 15198 ft | 307 kts | 322° |
| 2026-04-15 14:29 | 50.06617 | 9.60999 | 14694 ft | 305 kts | 322° |
| 2026-04-15 14:30 | 50.08324 | 9.59056 | 14211 ft | 303 kts | 322° |
| 2026-04-15 14:30 | 50.10021 | 9.57123 | 13711 ft | 301 kts | 322° |
| 2026-04-15 14:30 | 50.11703 | 9.55206 | 13175 ft | 299 kts | 322° |
| 2026-04-15 14:30 | 50.13378 | 9.53292 | 12650 ft | 297 kts | 322° |
| 2026-04-15 14:31 | 50.14997 | 9.51321 | 12129 ft | 294 kts | 311° |
| 2026-04-15 14:31 | 50.15947 | 9.48620 | 11581 ft | 288 kts | 279° |
| 2026-04-15 14:31 | 50.15955 | 9.45545 | 11177 ft | 282 kts | 264° |
| 2026-04-15 14:31 | 50.15749 | 9.42564 | 10927 ft | 272 kts | 263° |
| 2026-04-15 14:32 | 50.15540 | 9.39648 | 10513 ft | 270 kts | 263° |
| 2026-04-15 14:32 | 50.15333 | 9.36742 | 10050 ft | 270 kts | 263° |
| 2026-04-15 14:32 | 50.15129 | 9.33848 | 9590 ft | 268 kts | 263° |
| 2026-04-15 14:32 | 50.14928 | 9.30966 | 9138 ft | 266 kts | 263° |
| 2026-04-15 14:33 | 50.14729 | 9.28107 | 8668 ft | 265 kts | 263° |
| 2026-04-15 14:33 | 50.14532 | 9.25259 | 8228 ft | 263 kts | 263° |
| 2026-04-15 14:33 | 50.14337 | 9.22425 | 7790 ft | 262 kts | 263° |
| 2026-04-15 14:33 | 50.14142 | 9.19604 | 7370 ft | 261 kts | 263° |
| 2026-04-15 14:34 | 50.13949 | 9.16806 | 6995 ft | 257 kts | 263° |
| 2026-04-15 14:34 | 50.13759 | 9.14071 | 6615 ft | 251 kts | 263° |
| 2026-04-15 14:34 | 50.13572 | 9.11384 | 6316 ft | 249 kts | 263° |
| 2026-04-15 14:34 | 50.13382 | 9.08670 | 6075 ft | 254 kts | 263° |
| 2026-04-15 14:35 | 50.13188 | 9.05911 | 5813 ft | 257 kts | 263° |
| 2026-04-15 14:35 | 50.12994 | 9.03135 | 5559 ft | 257 kts | 263° |
| 2026-04-15 14:35 | 50.12800 | 9.00373 | 5305 ft | 256 kts | 263° |
| 2026-04-15 14:35 | 50.12606 | 8.97613 | 5056 ft | 256 kts | 263° |
| 2026-04-15 14:36 | 50.12414 | 8.94861 | 4816 ft | 255 kts | 263° |
| 2026-04-15 14:36 | 50.12054 | 8.92179 | 4572 ft | 252 kts | 252° |
| 2026-04-15 14:36 | 50.11480 | 8.89606 | 4424 ft | 250 kts | 249° |
| 2026-04-15 14:36 | 50.10851 | 8.87050 | 4169 ft | 255 kts | 248° |
| 2026-04-15 14:37 | 50.10219 | 8.84472 | 3838 ft | 254 kts | 249° |
| 2026-04-15 14:37 | 50.09602 | 8.81926 | 3502 ft | 245 kts | 249° |
| 2026-04-15 14:37 | 50.09030 | 8.79554 | 3192 ft | 223 kts | 249° |
| 2026-04-15 14:37 | 50.08511 | 8.77398 | 2902 ft | 203 kts | 249° |
| 2026-04-15 14:38 | 50.08037 | 8.75428 | 2641 ft | 185 kts | 250° |
| 2026-04-15 14:38 | 50.07620 | 8.73610 | 2301 ft | 175 kts | 256° |
| 2026-04-15 14:38 | 50.07461 | 8.71820 | 2063 ft | 159 kts | 265° |
| 2026-04-15 14:38 | 50.07280 | 8.70226 | 1970 ft | 149 kts | 252° |
| 2026-04-15 14:39 | 50.06947 | 8.68701 | 1816 ft | 148 kts | 252° |
| 2026-04-15 14:39 | 50.06628 | 8.67201 | 1641 ft | 147 kts | 251° |
| 2026-04-15 14:39 | 50.06243 | 8.65735 | 1482 ft | 148 kts | 245° |
| 2026-04-15 14:39 | 50.05848 | 8.64256 | 1276 ft | 148 kts | 248° |
| 2026-04-15 14:40 | 50.05484 | 8.62764 | 1017 ft | 147 kts | 249° |
| 2026-04-15 14:40 | 50.05127 | 8.61283 | 786 ft | 146 kts | 250° |
| 2026-04-15 14:40 | 50.04774 | 8.59797 | 560 ft | 146 kts | 251° |
| 2026-04-15 14:40 | 50.04425 | 8.58322 | 374 ft | 143 kts | 250° |
| 2026-04-15 14:41 | 50.04113 | 8.57017 | 360 ft | 109 kts | 249° |
| 2026-04-15 14:41 | 50.03921 | 8.56214 | 358 ft | 42 kts | 250° |
| 2026-04-15 14:41 | 50.03880 | 8.55915 | 356 ft | 25 kts | 278° |
| 2026-04-15 14:41 | 50.03906 | 8.55675 | 354 ft | 9 kts | 281° |
| 2026-04-15 14:42 | 50.03907 | 8.55669 | 355 ft | 1 kts | 281° |
| 2026-04-15 14:42 | 50.03908 | 8.55663 | 356 ft | 1 kts | 281° |
| 2026-04-15 14:42 | 50.03910 | 8.55648 | 356 ft | 3 kts | 283° |
| 2026-04-15 14:42 | 50.03929 | 8.55612 | 350 ft | 5 kts | 336° |
| 2026-04-15 14:43 | 50.03963 | 8.55638 | 353 ft | 7 kts | 41° |
| 2026-04-15 14:43 | 50.04000 | 8.55750 | 356 ft | 20 kts | 69° |
| 2026-04-15 14:43 | 50.04069 | 8.56031 | 358 ft | 33 kts | 69° |
| 2026-04-15 14:43 | 50.04147 | 8.56361 | 355 ft | 32 kts | 70° |
| 2026-04-15 14:44 | 50.04221 | 8.56670 | 357 ft | 29 kts | 70° |
| 2026-04-15 14:44 | 50.04290 | 8.56959 | 352 ft | 28 kts | 70° |
| 2026-04-15 14:44 | 50.04356 | 8.57232 | 355 ft | 26 kts | 69° |
| 2026-04-15 14:44 | 50.04416 | 8.57487 | 353 ft | 24 kts | 70° |
| 2026-04-15 14:45 | 50.04476 | 8.57740 | 355 ft | 27 kts | 70° |
| 2026-04-15 14:45 | 50.04546 | 8.58034 | 356 ft | 31 kts | 69° |
| 2026-04-15 14:45 | 50.04626 | 8.58367 | 350 ft | 34 kts | 69° |
| 2026-04-15 14:45 | 50.04709 | 8.58705 | 351 ft | 24 kts | 68° |
| 2026-04-15 14:46 | 50.04751 | 8.58860 | 355 ft | 11 kts | 56° |
| 2026-04-15 14:46 | 50.04791 | 8.58860 | 358 ft | 5 kts | 339° |
| 2026-04-15 14:46 | 50.04811 | 8.58848 | 353 ft | 0 kts | 339° |
| 2026-04-15 14:46 | 50.04825 | 8.58839 | 351 ft | 4 kts | 339° |
| 2026-04-15 14:47 | 50.04831 | 8.58836 | 356 ft | 0 kts | 339° |